sensor_id;sensor_type;location;lat;lon;timestamp;P1;durP1;ratioP1;P2;durP2;ratioP2
44564;SDS011;30275;51.822;-0.326;2023-03-25T00:02:19;5.18;;;1.50;;
44564;SDS011;30275;51.822;-0.326;2023-03-25T00:04:48;7.63;;;1.98;;
44564;SDS011;30275;51.822;-0.326;2023-03-25T00:07:18;5.57;;;1.42;;
44564;SDS011;30275;51.822;-0.326;2023-03-25T00:09:45;8.32;;;1.65;;
44564;SDS011;30275;51.822;-0.326;2023-03-25T00:12:11;7.25;;;1.30;;
44564;SDS011;30275;51.822;-0.326;2023-03-25T00:14:38;3.08;;;0.88;;
44564;SDS011;30275;51.822;-0.326;2023-03-25T00:17:03;2.78;;;0.57;;
44564;SDS011;30275;51.822;-0.326;2023-03-25T00:19:31;10.70;;;2.05;;
44564;SDS011;30275;51.822;-0.326;2023-03-25T00:21:57;6.63;;;1.92;;
44564;SDS011;30275;51.822;-0.326;2023-03-25T00:24:23;6.82;;;1.98;;
44564;SDS011;30275;51.822;-0.326;2023-03-25T00:26:49;5.18;;;1.48;;
44564;SDS011;30275;51.822;-0.326;2023-03-25T00:29:14;8.82;;;1.30;;
44564;SDS011;30275;51.822;-0.326;2023-03-25T00:31:40;7.05;;;1.00;;
44564;SDS011;30275;51.822;-0.326;2023-03-25T00:34:07;3.33;;;1.77;;
44564;SDS011;30275;51.822;-0.326;2023-03-25T00:36:33;4.28;;;1.60;;
44564;SDS011;30275;51.822;-0.326;2023-03-25T00:39:05;3.80;;;1.55;;
44564;SDS011;30275;51.822;-0.326;2023-03-25T00:41:32;4.07;;;1.30;;
44564;SDS011;30275;51.822;-0.326;2023-03-25T00:44:01;9.60;;;1.70;;
44564;SDS011;30275;51.822;-0.326;2023-03-25T00:46:28;5.65;;;1.77;;
44564;SDS011;30275;51.822;-0.326;2023-03-25T00:48:55;7.20;;;1.65;;
44564;SDS011;30275;51.822;-0.326;2023-03-25T00:51:22;10.25;;;2.55;;
44564;SDS011;30275;51.822;-0.326;2023-03-25T00:53:50;4.35;;;1.65;;
44564;SDS011;30275;51.822;-0.326;2023-03-25T00:56:21;9.75;;;1.35;;
44564;SDS011;30275;51.822;-0.326;2023-03-25T00:58:48;7.63;;;1.63;;
44564;SDS011;30275;51.822;-0.326;2023-03-25T01:01:16;9.20;;;2.13;;
44564;SDS011;30275;51.822;-0.326;2023-03-25T01:03:47;8.02;;;2.55;;
44564;SDS011;30275;51.822;-0.326;2023-03-25T01:06:14;4.50;;;1.30;;
44564;SDS011;30275;51.822;-0.326;2023-03-25T01:08:41;3.17;;;1.10;;
44564;SDS011;30275;51.822;-0.326;2023-03-25T01:11:18;4.43;;;1.40;;
44564;SDS011;30275;51.822;-0.326;2023-03-25T01:13:45;3.75;;;1.25;;
44564;SDS011;30275;51.822;-0.326;2023-03-25T01:16:10;6.80;;;1.58;;
44564;SDS011;30275;51.822;-0.326;2023-03-25T01:18:36;8.60;;;2.72;;
44564;SDS011;30275;51.822;-0.326;2023-03-25T01:21:05;6.85;;;1.75;;
44564;SDS011;30275;51.822;-0.326;2023-03-25T01:23:32;10.18;;;2.95;;
44564;SDS011;30275;51.822;-0.326;2023-03-25T01:25:58;10.20;;;1.88;;
44564;SDS011;30275;51.822;-0.326;2023-03-25T01:28:24;5.25;;;1.55;;
44564;SDS011;30275;51.822;-0.326;2023-03-25T01:30:52;10.18;;;1.83;;
44564;SDS011;30275;51.822;-0.326;2023-03-25T01:33:24;6.28;;;1.52;;
44564;SDS011;30275;51.822;-0.326;2023-03-25T01:35:49;6.40;;;1.88;;
44564;SDS011;30275;51.822;-0.326;2023-03-25T01:38:15;7.55;;;2.08;;
44564;SDS011;30275;51.822;-0.326;2023-03-25T01:40:41;7.15;;;1.60;;
44564;SDS011;30275;51.822;-0.326;2023-03-25T01:43:10;7.18;;;1.67;;
44564;SDS011;30275;51.822;-0.326;2023-03-25T01:45:37;5.57;;;1.27;;
44564;SDS011;30275;51.822;-0.326;2023-03-25T01:48:11;6.05;;;1.60;;
44564;SDS011;30275;51.822;-0.326;2023-03-25T01:51:01;5.95;;;1.15;;
44564;SDS011;30275;51.822;-0.326;2023-03-25T01:53:40;8.20;;;1.65;;
44564;SDS011;30275;51.822;-0.326;2023-03-25T01:56:07;8.70;;;1.55;;
44564;SDS011;30275;51.822;-0.326;2023-03-25T01:58:36;5.72;;;2.10;;
44564;SDS011;30275;51.822;-0.326;2023-03-25T02:01:02;7.40;;;1.95;;
44564;SDS011;30275;51.822;-0.326;2023-03-25T02:03:28;5.15;;;2.22;;
44564;SDS011;30275;51.822;-0.326;2023-03-25T02:05:59;9.27;;;1.83;;
44564;SDS011;30275;51.822;-0.326;2023-03-25T02:08:30;9.05;;;2.25;;
44564;SDS011;30275;51.822;-0.326;2023-03-25T02:11:01;11.02;;;1.88;;
44564;SDS011;30275;51.822;-0.326;2023-03-25T02:13:27;9.27;;;3.05;;
44564;SDS011;30275;51.822;-0.326;2023-03-25T02:18:51;6.97;;;1.67;;
44564;SDS011;30275;51.822;-0.326;2023-03-25T02:21:29;11.75;;;1.85;;
44564;SDS011;30275;51.822;-0.326;2023-03-25T02:26:56;9.38;;;4.22;;
44564;SDS011;30275;51.822;-0.326;2023-03-25T02:43:40;16.35;;;3.75;;
44564;SDS011;30275;51.822;-0.326;2023-03-25T02:46:29;6.25;;;1.98;;
44564;SDS011;30275;51.822;-0.326;2023-03-25T02:49:01;6.22;;;2.38;;
44564;SDS011;30275;51.822;-0.326;2023-03-25T02:51:36;10.93;;;2.15;;
44564;SDS011;30275;51.822;-0.326;2023-03-25T02:54:08;5.38;;;1.50;;
44564;SDS011;30275;51.822;-0.326;2023-03-25T02:56:37;8.68;;;2.20;;
44564;SDS011;30275;51.822;-0.326;2023-03-25T02:59:05;11.10;;;2.60;;
44564;SDS011;30275;51.822;-0.326;2023-03-25T03:01:34;9.07;;;2.10;;
44564;SDS011;30275;51.822;-0.326;2023-03-25T03:04:00;6.03;;;1.35;;
44564;SDS011;30275;51.822;-0.326;2023-03-25T03:06:26;7.00;;;1.90;;
44564;SDS011;30275;51.822;-0.326;2023-03-25T03:09:01;11.45;;;2.45;;
44564;SDS011;30275;51.822;-0.326;2023-03-25T03:11:59;10.48;;;2.05;;
44564;SDS011;30275;51.822;-0.326;2023-03-25T03:14:40;11.77;;;2.33;;
44564;SDS011;30275;51.822;-0.326;2023-03-25T03:20:16;7.97;;;1.67;;
44564;SDS011;30275;51.822;-0.326;2023-03-25T03:23:00;4.50;;;1.30;;
44564;SDS011;30275;51.822;-0.326;2023-03-25T03:25:54;9.27;;;2.58;;
44564;SDS011;30275;51.822;-0.326;2023-03-25T03:28:33;4.80;;;1.77;;
44564;SDS011;30275;51.822;-0.326;2023-03-25T03:31:24;3.55;;;1.52;;
44564;SDS011;30275;51.822;-0.326;2023-03-25T03:33:55;6.50;;;1.23;;
44564;SDS011;30275;51.822;-0.326;2023-03-25T03:36:27;9.38;;;1.98;;
44564;SDS011;30275;51.822;-0.326;2023-03-25T03:39:00;11.90;;;2.20;;
44564;SDS011;30275;51.822;-0.326;2023-03-25T03:41:45;2.95;;;1.30;;
44564;SDS011;30275;51.822;-0.326;2023-03-25T03:44:15;6.32;;;2.05;;
44564;SDS011;30275;51.822;-0.326;2023-03-25T03:46:47;10.10;;;1.77;;
44564;SDS011;30275;51.822;-0.326;2023-03-25T03:49:20;5.45;;;1.45;;
44564;SDS011;30275;51.822;-0.326;2023-03-25T03:51:52;8.18;;;1.73;;
44564;SDS011;30275;51.822;-0.326;2023-03-25T03:54:23;11.30;;;2.00;;
44564;SDS011;30275;51.822;-0.326;2023-03-25T03:57:02;9.48;;;2.38;;
44564;SDS011;30275;51.822;-0.326;2023-03-25T04:02:29;9.40;;;2.65;;
44564;SDS011;30275;51.822;-0.326;2023-03-25T04:05:02;12.25;;;1.92;;
44564;SDS011;30275;51.822;-0.326;2023-03-25T04:07:32;5.63;;;1.48;;
44564;SDS011;30275;51.822;-0.326;2023-03-25T04:10:26;8.82;;;2.33;;
44564;SDS011;30275;51.822;-0.326;2023-03-25T04:12:53;9.77;;;2.33;;
44564;SDS011;30275;51.822;-0.326;2023-03-25T04:15:22;9.32;;;2.25;;
44564;SDS011;30275;51.822;-0.326;2023-03-25T04:17:48;10.15;;;2.40;;
44564;SDS011;30275;51.822;-0.326;2023-03-25T04:20:14;11.30;;;2.53;;
44564;SDS011;30275;51.822;-0.326;2023-03-25T04:22:47;12.05;;;2.72;;
44564;SDS011;30275;51.822;-0.326;2023-03-25T04:25:13;8.80;;;1.92;;
44564;SDS011;30275;51.822;-0.326;2023-03-25T04:27:39;13.45;;;2.88;;
44564;SDS011;30275;51.822;-0.326;2023-03-25T04:30:06;6.68;;;2.25;;
44564;SDS011;30275;51.822;-0.326;2023-03-25T04:32:32;16.10;;;2.78;;
44564;SDS011;30275;51.822;-0.326;2023-03-25T04:34:59;8.05;;;1.98;;
44564;SDS011;30275;51.822;-0.326;2023-03-25T04:37:28;16.98;;;2.47;;
44564;SDS011;30275;51.822;-0.326;2023-03-25T04:39:54;8.90;;;2.15;;
44564;SDS011;30275;51.822;-0.326;2023-03-25T04:42:23;11.10;;;2.90;;
44564;SDS011;30275;51.822;-0.326;2023-03-25T04:44:56;8.45;;;3.80;;
44564;SDS011;30275;51.822;-0.326;2023-03-25T04:47:23;13.77;;;3.10;;
44564;SDS011;30275;51.822;-0.326;2023-03-25T04:49:49;8.02;;;2.20;;
44564;SDS011;30275;51.822;-0.326;2023-03-25T04:52:15;15.23;;;2.88;;
44564;SDS011;30275;51.822;-0.326;2023-03-25T04:54:41;17.83;;;3.10;;
44564;SDS011;30275;51.822;-0.326;2023-03-25T04:57:09;15.55;;;3.53;;
44564;SDS011;30275;51.822;-0.326;2023-03-25T04:59:34;15.88;;;3.17;;
44564;SDS011;30275;51.822;-0.326;2023-03-25T05:02:01;11.65;;;2.65;;
44564;SDS011;30275;51.822;-0.326;2023-03-25T05:04:30;14.40;;;2.60;;
44564;SDS011;30275;51.822;-0.326;2023-03-25T05:06:56;14.77;;;3.33;;
44564;SDS011;30275;51.822;-0.326;2023-03-25T05:09:22;15.05;;;3.22;;
44564;SDS011;30275;51.822;-0.326;2023-03-25T05:11:48;8.00;;;3.72;;
44564;SDS011;30275;51.822;-0.326;2023-03-25T05:14:16;13.18;;;2.97;;
44564;SDS011;30275;51.822;-0.326;2023-03-25T05:16:43;13.07;;;2.90;;
44564;SDS011;30275;51.822;-0.326;2023-03-25T05:19:10;10.25;;;2.60;;
44564;SDS011;30275;51.822;-0.326;2023-03-25T05:21:36;15.07;;;3.88;;
44564;SDS011;30275;51.822;-0.326;2023-03-25T05:24:04;20.02;;;3.72;;
44564;SDS011;30275;51.822;-0.326;2023-03-25T05:26:32;20.73;;;3.00;;
44564;SDS011;30275;51.822;-0.326;2023-03-25T05:28:59;15.15;;;4.05;;
44564;SDS011;30275;51.822;-0.326;2023-03-25T05:31:28;15.35;;;2.67;;
44564;SDS011;30275;51.822;-0.326;2023-03-25T05:33:54;17.08;;;3.22;;
44564;SDS011;30275;51.822;-0.326;2023-03-25T05:36:19;15.93;;;3.45;;
44564;SDS011;30275;51.822;-0.326;2023-03-25T05:38:45;17.92;;;3.17;;
44564;SDS011;30275;51.822;-0.326;2023-03-25T05:41:12;13.02;;;2.78;;
44564;SDS011;30275;51.822;-0.326;2023-03-25T05:43:40;16.52;;;2.65;;
44564;SDS011;30275;51.822;-0.326;2023-03-25T05:46:15;13.57;;;3.78;;
44564;SDS011;30275;51.822;-0.326;2023-03-25T05:48:43;17.88;;;3.75;;
44564;SDS011;30275;51.822;-0.326;2023-03-25T05:51:10;17.15;;;3.70;;
44564;SDS011;30275;51.822;-0.326;2023-03-25T05:53:44;13.05;;;2.83;;
44564;SDS011;30275;51.822;-0.326;2023-03-25T05:56:13;18.15;;;4.30;;
44564;SDS011;30275;51.822;-0.326;2023-03-25T05:58:41;14.98;;;2.78;;
44564;SDS011;30275;51.822;-0.326;2023-03-25T06:01:08;7.60;;;2.72;;
44564;SDS011;30275;51.822;-0.326;2023-03-25T06:03:35;16.67;;;3.47;;
44564;SDS011;30275;51.822;-0.326;2023-03-25T06:06:01;11.45;;;3.40;;
44564;SDS011;30275;51.822;-0.326;2023-03-25T06:08:29;11.23;;;2.28;;
44564;SDS011;30275;51.822;-0.326;2023-03-25T06:10:55;21.77;;;3.83;;
44564;SDS011;30275;51.822;-0.326;2023-03-25T06:13:25;18.60;;;3.60;;
44564;SDS011;30275;51.822;-0.326;2023-03-25T06:15:51;9.07;;;2.67;;
44564;SDS011;30275;51.822;-0.326;2023-03-25T06:18:21;16.10;;;3.20;;
44564;SDS011;30275;51.822;-0.326;2023-03-25T06:20:51;7.55;;;2.03;;
44564;SDS011;30275;51.822;-0.326;2023-03-25T06:23:18;14.13;;;3.08;;
44564;SDS011;30275;51.822;-0.326;2023-03-25T06:25:46;8.70;;;2.35;;
44564;SDS011;30275;51.822;-0.326;2023-03-25T06:28:13;10.68;;;3.13;;
44564;SDS011;30275;51.822;-0.326;2023-03-25T06:30:42;16.17;;;3.53;;
44564;SDS011;30275;51.822;-0.326;2023-03-25T06:33:11;10.10;;;2.67;;
44564;SDS011;30275;51.822;-0.326;2023-03-25T06:35:39;13.45;;;2.80;;
44564;SDS011;30275;51.822;-0.326;2023-03-25T06:38:06;16.30;;;3.30;;
44564;SDS011;30275;51.822;-0.326;2023-03-25T06:40:33;14.35;;;3.30;;
44564;SDS011;30275;51.822;-0.326;2023-03-25T06:43:02;12.07;;;4.15;;
44564;SDS011;30275;51.822;-0.326;2023-03-25T06:45:31;16.02;;;4.25;;
44564;SDS011;30275;51.822;-0.326;2023-03-25T06:47:57;20.70;;;3.47;;
44564;SDS011;30275;51.822;-0.326;2023-03-25T06:50:23;16.10;;;4.28;;
44564;SDS011;30275;51.822;-0.326;2023-03-25T06:52:49;15.80;;;3.03;;
44564;SDS011;30275;51.822;-0.326;2023-03-25T06:55:14;16.77;;;3.28;;
44564;SDS011;30275;51.822;-0.326;2023-03-25T06:57:40;17.25;;;3.20;;
44564;SDS011;30275;51.822;-0.326;2023-03-25T07:00:07;18.27;;;3.13;;
44564;SDS011;30275;51.822;-0.326;2023-03-25T07:02:36;9.75;;;3.70;;
44564;SDS011;30275;51.822;-0.326;2023-03-25T07:05:02;12.15;;;3.03;;
44564;SDS011;30275;51.822;-0.326;2023-03-25T07:07:28;12.00;;;3.65;;
44564;SDS011;30275;51.822;-0.326;2023-03-25T07:09:53;10.52;;;4.60;;
44564;SDS011;30275;51.822;-0.326;2023-03-25T07:12:23;8.23;;;2.13;;
44564;SDS011;30275;51.822;-0.326;2023-03-25T07:14:52;15.65;;;2.78;;
44564;SDS011;30275;51.822;-0.326;2023-03-25T07:17:21;14.18;;;2.63;;
44564;SDS011;30275;51.822;-0.326;2023-03-25T07:19:48;8.00;;;3.13;;
44564;SDS011;30275;51.822;-0.326;2023-03-25T07:22:14;17.92;;;3.30;;
44564;SDS011;30275;51.822;-0.326;2023-03-25T07:24:40;13.57;;;2.42;;
44564;SDS011;30275;51.822;-0.326;2023-03-25T07:27:06;11.82;;;2.88;;
44564;SDS011;30275;51.822;-0.326;2023-03-25T07:29:31;12.57;;;2.35;;
44564;SDS011;30275;51.822;-0.326;2023-03-25T07:31:57;17.50;;;3.25;;
44564;SDS011;30275;51.822;-0.326;2023-03-25T07:34:22;9.50;;;2.22;;
44564;SDS011;30275;51.822;-0.326;2023-03-25T07:36:48;16.23;;;2.90;;
44564;SDS011;30275;51.822;-0.326;2023-03-25T07:39:14;10.40;;;2.20;;
44564;SDS011;30275;51.822;-0.326;2023-03-25T07:41:40;15.13;;;3.90;;
44564;SDS011;30275;51.822;-0.326;2023-03-25T07:44:06;7.63;;;1.83;;
44564;SDS011;30275;51.822;-0.326;2023-03-25T07:46:32;9.68;;;1.92;;
44564;SDS011;30275;51.822;-0.326;2023-03-25T07:48:58;9.85;;;2.67;;
44564;SDS011;30275;51.822;-0.326;2023-03-25T07:51:23;9.40;;;2.22;;
44564;SDS011;30275;51.822;-0.326;2023-03-25T07:53:49;5.32;;;1.85;;
44564;SDS011;30275;51.822;-0.326;2023-03-25T07:56:14;11.25;;;2.95;;
44564;SDS011;30275;51.822;-0.326;2023-03-25T07:58:40;6.15;;;2.28;;
44564;SDS011;30275;51.822;-0.326;2023-03-25T08:01:08;11.45;;;1.88;;
44564;SDS011;30275;51.822;-0.326;2023-03-25T08:03:34;7.75;;;1.83;;
44564;SDS011;30275;51.822;-0.326;2023-03-25T08:06:02;6.22;;;1.73;;
44564;SDS011;30275;51.822;-0.326;2023-03-25T08:08:28;8.27;;;1.23;;
44564;SDS011;30275;51.822;-0.326;2023-03-25T08:10:54;5.15;;;1.60;;
44564;SDS011;30275;51.822;-0.326;2023-03-25T08:13:20;9.93;;;1.88;;
44564;SDS011;30275;51.822;-0.326;2023-03-25T08:15:46;6.00;;;1.92;;
44564;SDS011;30275;51.822;-0.326;2023-03-25T08:18:12;5.50;;;1.83;;
44564;SDS011;30275;51.822;-0.326;2023-03-25T08:20:38;6.95;;;1.75;;
44564;SDS011;30275;51.822;-0.326;2023-03-25T08:23:03;9.30;;;1.40;;
44564;SDS011;30275;51.822;-0.326;2023-03-25T08:25:34;3.63;;;1.33;;
44564;SDS011;30275;51.822;-0.326;2023-03-25T08:28:04;5.25;;;1.48;;
44564;SDS011;30275;51.822;-0.326;2023-03-25T08:30:30;9.85;;;1.48;;
44564;SDS011;30275;51.822;-0.326;2023-03-25T08:33:03;7.55;;;1.40;;
44564;SDS011;30275;51.822;-0.326;2023-03-25T08:35:31;7.43;;;1.92;;
44564;SDS011;30275;51.822;-0.326;2023-03-25T08:37:58;9.57;;;2.35;;
44564;SDS011;30275;51.822;-0.326;2023-03-25T08:40:25;4.22;;;0.88;;
44564;SDS011;30275;51.822;-0.326;2023-03-25T08:42:51;6.93;;;1.52;;
44564;SDS011;30275;51.822;-0.326;2023-03-25T08:45:17;10.20;;;1.95;;
44564;SDS011;30275;51.822;-0.326;2023-03-25T08:47:43;5.28;;;1.70;;
44564;SDS011;30275;51.822;-0.326;2023-03-25T08:50:09;3.33;;;1.30;;
44564;SDS011;30275;51.822;-0.326;2023-03-25T08:52:35;5.85;;;1.58;;
44564;SDS011;30275;51.822;-0.326;2023-03-25T08:55:01;6.75;;;1.67;;
44564;SDS011;30275;51.822;-0.326;2023-03-25T08:57:27;7.47;;;1.60;;
44564;SDS011;30275;51.822;-0.326;2023-03-25T08:59:52;5.97;;;1.63;;
44564;SDS011;30275;51.822;-0.326;2023-03-25T09:02:18;6.78;;;1.48;;
44564;SDS011;30275;51.822;-0.326;2023-03-25T09:04:43;3.80;;;1.30;;
44564;SDS011;30275;51.822;-0.326;2023-03-25T09:07:12;7.47;;;2.35;;
44564;SDS011;30275;51.822;-0.326;2023-03-25T09:09:41;3.47;;;1.10;;
44564;SDS011;30275;51.822;-0.326;2023-03-25T09:12:06;3.33;;;1.13;;
44564;SDS011;30275;51.822;-0.326;2023-03-25T09:14:32;5.93;;;1.67;;
44564;SDS011;30275;51.822;-0.326;2023-03-25T09:16:58;5.45;;;1.38;;
44564;SDS011;30275;51.822;-0.326;2023-03-25T09:19:24;4.05;;;1.27;;
44564;SDS011;30275;51.822;-0.326;2023-03-25T09:21:50;7.50;;;1.55;;
44564;SDS011;30275;51.822;-0.326;2023-03-25T09:24:16;5.82;;;1.30;;
44564;SDS011;30275;51.822;-0.326;2023-03-25T09:26:41;5.45;;;1.30;;
44564;SDS011;30275;51.822;-0.326;2023-03-25T09:29:07;3.95;;;1.23;;
44564;SDS011;30275;51.822;-0.326;2023-03-25T09:31:33;4.18;;;1.17;;
44564;SDS011;30275;51.822;-0.326;2023-03-25T09:33:59;5.43;;;1.65;;
44564;SDS011;30275;51.822;-0.326;2023-03-25T09:36:25;4.43;;;1.63;;
44564;SDS011;30275;51.822;-0.326;2023-03-25T09:38:51;4.57;;;1.30;;
44564;SDS011;30275;51.822;-0.326;2023-03-25T09:42:00;6.30;;;1.85;;
44564;SDS011;30275;51.822;-0.326;2023-03-25T09:44:22;3.67;;;1.38;;
44564;SDS011;30275;51.822;-0.326;2023-03-25T09:47:07;3.08;;;0.90;;
44564;SDS011;30275;51.822;-0.326;2023-03-25T09:49:36;2.88;;;1.00;;
44564;SDS011;30275;51.822;-0.326;2023-03-25T09:52:06;2.38;;;1.00;;
44564;SDS011;30275;51.822;-0.326;2023-03-25T09:54:42;3.85;;;1.02;;
44564;SDS011;30275;51.822;-0.326;2023-03-25T09:57:25;3.38;;;0.80;;
44564;SDS011;30275;51.822;-0.326;2023-03-25T09:59:55;4.25;;;1.35;;
44564;SDS011;30275;51.822;-0.326;2023-03-25T10:02:31;4.07;;;1.27;;
44564;SDS011;30275;51.822;-0.326;2023-03-25T10:05:20;2.10;;;0.70;;
44564;SDS011;30275;51.822;-0.326;2023-03-25T10:21:57;2.03;;;0.82;;
44564;SDS011;30275;51.822;-0.326;2023-03-25T10:25:11;1.05;;;0.80;;
44564;SDS011;30275;51.822;-0.326;2023-03-25T10:27:33;2.85;;;0.88;;
44564;SDS011;30275;51.822;-0.326;2023-03-25T10:35:03;5.10;;;1.25;;
44564;SDS011;30275;51.822;-0.326;2023-03-25T10:37:34;5.07;;;1.13;;
44564;SDS011;30275;51.822;-0.326;2023-03-25T10:40:13;1.45;;;0.88;;
44564;SDS011;30275;51.822;-0.326;2023-03-25T10:45:47;5.68;;;0.90;;
44564;SDS011;30275;51.822;-0.326;2023-03-25T10:51:02;3.00;;;1.30;;
44564;SDS011;30275;51.822;-0.326;2023-03-25T10:53:32;1.20;;;0.80;;
44564;SDS011;30275;51.822;-0.326;2023-03-25T10:56:02;5.32;;;1.17;;
44564;SDS011;30275;51.822;-0.326;2023-03-25T10:58:42;3.30;;;1.00;;
44564;SDS011;30275;51.822;-0.326;2023-03-25T11:01:15;2.75;;;0.80;;
44564;SDS011;30275;51.822;-0.326;2023-03-25T11:03:48;3.20;;;0.98;;
44564;SDS011;30275;51.822;-0.326;2023-03-25T11:06:24;3.70;;;1.17;;
44564;SDS011;30275;51.822;-0.326;2023-03-25T11:11:42;4.72;;;1.20;;
44564;SDS011;30275;51.822;-0.326;2023-03-25T11:14:09;3.38;;;0.77;;
44564;SDS011;30275;51.822;-0.326;2023-03-25T11:16:40;3.47;;;1.00;;
44564;SDS011;30275;51.822;-0.326;2023-03-25T11:19:11;2.90;;;0.80;;
44564;SDS011;30275;51.822;-0.326;2023-03-25T11:25:19;5.47;;;1.30;;
44564;SDS011;30275;51.822;-0.326;2023-03-25T11:27:57;2.72;;;0.88;;
44564;SDS011;30275;51.822;-0.326;2023-03-25T11:30:25;3.22;;;1.00;;
44564;SDS011;30275;51.822;-0.326;2023-03-25T11:35:31;2.17;;;0.80;;
44564;SDS011;30275;51.822;-0.326;2023-03-25T11:38:07;2.28;;;0.80;;
44564;SDS011;30275;51.822;-0.326;2023-03-25T11:40:48;1.70;;;1.05;;
44564;SDS011;30275;51.822;-0.326;2023-03-25T11:43:21;3.33;;;1.33;;
44564;SDS011;30275;51.822;-0.326;2023-03-25T11:45:48;3.92;;;1.15;;
44564;SDS011;30275;51.822;-0.326;2023-03-25T11:48:15;3.08;;;0.80;;
44564;SDS011;30275;51.822;-0.326;2023-03-25T11:50:48;2.58;;;0.80;;
44564;SDS011;30275;51.822;-0.326;2023-03-25T11:53:21;3.55;;;1.17;;
44564;SDS011;30275;51.822;-0.326;2023-03-25T11:55:50;2.72;;;1.00;;
44564;SDS011;30275;51.822;-0.326;2023-03-25T11:58:29;3.15;;;0.80;;
44564;SDS011;30275;51.822;-0.326;2023-03-25T12:01:03;3.17;;;0.70;;
44564;SDS011;30275;51.822;-0.326;2023-03-25T12:06:15;1.65;;;0.90;;
44564;SDS011;30275;51.822;-0.326;2023-03-25T12:11:25;2.03;;;0.73;;
44564;SDS011;30275;51.822;-0.326;2023-03-25T12:14:15;1.38;;;0.50;;
44564;SDS011;30275;51.822;-0.326;2023-03-25T12:17:10;1.65;;;0.70;;
44564;SDS011;30275;51.822;-0.326;2023-03-25T12:28:45;2.97;;;0.70;;
44564;SDS011;30275;51.822;-0.326;2023-03-25T12:31:34;1.02;;;0.75;;
44564;SDS011;30275;51.822;-0.326;2023-03-25T12:45:05;3.90;;;0.85;;
44564;SDS011;30275;51.822;-0.326;2023-03-25T12:56:03;1.45;;;0.90;;
44564;SDS011;30275;51.822;-0.326;2023-03-25T13:01:25;3.20;;;0.77;;
44564;SDS011;30275;51.822;-0.326;2023-03-25T13:04:18;1.10;;;0.70;;
44564;SDS011;30275;51.822;-0.326;2023-03-25T13:07:02;1.98;;;0.88;;
44564;SDS011;30275;51.822;-0.326;2023-03-25T13:12:34;1.40;;;0.90;;
44564;SDS011;30275;51.822;-0.326;2023-03-25T13:17:37;1.63;;;0.60;;
44564;SDS011;30275;51.822;-0.326;2023-03-25T13:20:09;2.47;;;0.70;;
44564;SDS011;30275;51.822;-0.326;2023-03-25T13:22:37;2.55;;;0.73;;
44564;SDS011;30275;51.822;-0.326;2023-03-25T13:25:18;1.33;;;0.50;;
44564;SDS011;30275;51.822;-0.326;2023-03-25T13:27:50;2.90;;;0.60;;
44564;SDS011;30275;51.822;-0.326;2023-03-25T13:30:23;0.73;;;0.50;;
44564;SDS011;30275;51.822;-0.326;2023-03-25T13:33:39;1.42;;;0.80;;
44564;SDS011;30275;51.822;-0.326;2023-03-25T13:36:00;2.85;;;0.80;;
44564;SDS011;30275;51.822;-0.326;2023-03-25T13:38:50;2.53;;;0.80;;
44564;SDS011;30275;51.822;-0.326;2023-03-25T13:41:33;4.22;;;0.80;;
44564;SDS011;30275;51.822;-0.326;2023-03-25T13:47:02;2.70;;;0.88;;
44564;SDS011;30275;51.822;-0.326;2023-03-25T13:49:54;2.08;;;0.70;;
44564;SDS011;30275;51.822;-0.326;2023-03-25T13:52:37;3.22;;;0.98;;
44564;SDS011;30275;51.822;-0.326;2023-03-25T13:55:12;5.28;;;1.38;;
44564;SDS011;30275;51.822;-0.326;2023-03-25T14:08:59;4.25;;;0.98;;
44564;SDS011;30275;51.822;-0.326;2023-03-25T14:14:07;4.45;;;1.38;;
44564;SDS011;30275;51.822;-0.326;2023-03-25T14:16:37;5.80;;;1.40;;
44564;SDS011;30275;51.822;-0.326;2023-03-25T14:19:16;5.65;;;1.50;;
44564;SDS011;30275;51.822;-0.326;2023-03-25T14:21:46;2.70;;;0.70;;
44564;SDS011;30275;51.822;-0.326;2023-03-25T14:24:17;3.45;;;1.13;;
44564;SDS011;30275;51.822;-0.326;2023-03-25T14:26:48;1.25;;;0.60;;
44564;SDS011;30275;51.822;-0.326;2023-03-25T14:29:21;4.82;;;0.75;;
44564;SDS011;30275;51.822;-0.326;2023-03-25T14:32:05;5.95;;;1.08;;
44564;SDS011;30275;51.822;-0.326;2023-03-25T14:34:41;3.25;;;1.08;;
44564;SDS011;30275;51.822;-0.326;2023-03-25T14:39:38;3.33;;;1.40;;
44564;SDS011;30275;51.822;-0.326;2023-03-25T14:44:46;6.55;;;1.00;;
44564;SDS011;30275;51.822;-0.326;2023-03-25T14:49:53;4.38;;;1.48;;
44564;SDS011;30275;51.822;-0.326;2023-03-25T14:54:57;9.35;;;2.10;;
44564;SDS011;30275;51.822;-0.326;2023-03-25T14:57:29;3.92;;;1.48;;
44564;SDS011;30275;51.822;-0.326;2023-03-25T15:00:04;7.57;;;1.65;;
44564;SDS011;30275;51.822;-0.326;2023-03-25T15:02:38;6.00;;;1.50;;
44564;SDS011;30275;51.822;-0.326;2023-03-25T15:10:31;4.97;;;1.20;;
44564;SDS011;30275;51.822;-0.326;2023-03-25T15:13:04;2.92;;;1.63;;
44564;SDS011;30275;51.822;-0.326;2023-03-25T15:18:08;4.88;;;1.10;;
44564;SDS011;30275;51.822;-0.326;2023-03-25T15:20:34;3.88;;;1.17;;
44564;SDS011;30275;51.822;-0.326;2023-03-25T15:25:50;2.00;;;0.93;;
44564;SDS011;30275;51.822;-0.326;2023-03-25T15:31:05;6.10;;;1.40;;
44564;SDS011;30275;51.822;-0.326;2023-03-25T15:36:27;3.97;;;1.50;;
44564;SDS011;30275;51.822;-0.326;2023-03-25T15:42:08;5.15;;;1.52;;
44564;SDS011;30275;51.822;-0.326;2023-03-25T15:45:00;5.15;;;1.17;;
44564;SDS011;30275;51.822;-0.326;2023-03-25T15:53:37;5.85;;;1.25;;
44564;SDS011;30275;51.822;-0.326;2023-03-25T15:56:11;4.88;;;1.52;;
44564;SDS011;30275;51.822;-0.326;2023-03-25T16:01:15;3.42;;;1.35;;
44564;SDS011;30275;51.822;-0.326;2023-03-25T16:03:53;5.28;;;1.95;;
44564;SDS011;30275;51.822;-0.326;2023-03-25T16:06:23;3.85;;;1.27;;
44564;SDS011;30275;51.822;-0.326;2023-03-25T16:08:50;5.70;;;1.23;;
44564;SDS011;30275;51.822;-0.326;2023-03-25T16:13:45;4.68;;;1.40;;
44564;SDS011;30275;51.822;-0.326;2023-03-25T16:16:12;3.53;;;1.15;;
44564;SDS011;30275;51.822;-0.326;2023-03-25T16:18:42;3.15;;;0.90;;
44564;SDS011;30275;51.822;-0.326;2023-03-25T16:21:10;2.92;;;1.00;;
44564;SDS011;30275;51.822;-0.326;2023-03-25T16:23:36;1.83;;;0.70;;
44564;SDS011;30275;51.822;-0.326;2023-03-25T16:26:03;3.10;;;0.73;;
44564;SDS011;30275;51.822;-0.326;2023-03-25T16:31:02;4.10;;;1.20;;
44564;SDS011;30275;51.822;-0.326;2023-03-25T16:33:29;4.85;;;1.13;;
44564;SDS011;30275;51.822;-0.326;2023-03-25T16:36:03;5.10;;;1.10;;
44564;SDS011;30275;51.822;-0.326;2023-03-25T16:38:32;5.90;;;1.20;;
44564;SDS011;30275;51.822;-0.326;2023-03-25T16:40:59;2.33;;;1.17;;
44564;SDS011;30275;51.822;-0.326;2023-03-25T16:43:27;5.15;;;1.38;;
44564;SDS011;30275;51.822;-0.326;2023-03-25T16:45:58;3.25;;;1.10;;
44564;SDS011;30275;51.822;-0.326;2023-03-25T16:48:27;7.13;;;1.88;;
44564;SDS011;30275;51.822;-0.326;2023-03-25T16:50:59;7.90;;;1.58;;
44564;SDS011;30275;51.822;-0.326;2023-03-25T16:53:40;5.15;;;1.63;;
44564;SDS011;30275;51.822;-0.326;2023-03-25T16:58:33;4.15;;;1.70;;
44564;SDS011;30275;51.822;-0.326;2023-03-25T17:01:06;7.53;;;1.90;;
44564;SDS011;30275;51.822;-0.326;2023-03-25T17:03:44;6.18;;;1.42;;
44564;SDS011;30275;51.822;-0.326;2023-03-25T17:08:53;7.07;;;2.15;;
44564;SDS011;30275;51.822;-0.326;2023-03-25T17:11:21;4.85;;;1.30;;
44564;SDS011;30275;51.822;-0.326;2023-03-25T17:13:50;5.03;;;1.88;;
44564;SDS011;30275;51.822;-0.326;2023-03-25T17:16:22;4.63;;;1.60;;
44564;SDS011;30275;51.822;-0.326;2023-03-25T17:18:53;6.05;;;1.58;;
44564;SDS011;30275;51.822;-0.326;2023-03-25T17:21:21;5.78;;;1.67;;
44564;SDS011;30275;51.822;-0.326;2023-03-25T17:23:51;5.60;;;1.67;;
44564;SDS011;30275;51.822;-0.326;2023-03-25T17:26:18;5.70;;;1.50;;
44564;SDS011;30275;51.822;-0.326;2023-03-25T17:31:23;8.35;;;1.35;;
44564;SDS011;30275;51.822;-0.326;2023-03-25T17:34:04;5.38;;;2.00;;
44564;SDS011;30275;51.822;-0.326;2023-03-25T17:36:36;5.38;;;1.50;;
44564;SDS011;30275;51.822;-0.326;2023-03-25T17:39:05;5.03;;;1.95;;
44564;SDS011;30275;51.822;-0.326;2023-03-25T17:41:40;5.80;;;1.83;;